createdAt,value
2016-12-14T00:00:43.782Z,-0.49
2016-12-14T00:01:52.464Z,-0.59
2016-12-14T00:03:01.205Z,-0.51
2016-12-14T00:04:09.893Z,-0.62
2016-12-14T00:05:18.578Z,-0.7
2016-12-14T00:06:27.262Z,-0.78
2016-12-14T00:07:35.958Z,-0.85
2016-12-14T00:08:44.693Z,-0.96
2016-12-14T00:09:53.382Z,-0.97
2016-12-14T00:11:02.070Z,-1.06
2016-12-14T00:12:10.765Z,-1.07
2016-12-14T00:13:19.767Z,-1.12
2016-12-14T00:14:28.510Z,-1.19
2016-12-14T00:15:37.200Z,-1.21
2016-12-14T00:16:45.885Z,-1.18
2016-12-14T00:17:54.570Z,-1.18
2016-12-14T00:19:03.252Z,-1.11
2016-12-14T00:20:11.985Z,-1
2016-12-14T00:21:20.671Z,-0.89
2016-12-14T00:22:29.357Z,-0.74
2016-12-14T00:23:38.043Z,-0.62
2016-12-14T00:24:46.767Z,-0.56
2016-12-14T00:25:55.496Z,-0.41
2016-12-14T00:27:04.184Z,-0.46
2016-12-14T00:28:12.865Z,-0.45
2016-12-14T00:29:21.550Z,-0.53
2016-12-14T00:30:30.235Z,-0.53
2016-12-14T00:31:38.969Z,-0.57
2016-12-14T00:32:47.653Z,-0.57
2016-12-14T00:33:56.345Z,-0.69
2016-12-14T00:35:05.029Z,-0.7
2016-12-14T00:36:13.716Z,-0.75
2016-12-14T00:37:22.453Z,-0.75
2016-12-14T00:38:31.134Z,-0.77
2016-12-14T00:39:39.818Z,-0.85
2016-12-14T00:40:48.507Z,-0.84
2016-12-14T00:41:57.192Z,-0.99
2016-12-14T00:43:05.967Z,-0.97
2016-12-14T00:44:14.654Z,-0.94
2016-12-14T00:45:23.338Z,-0.97
2016-12-14T00:46:32.026Z,-1
2016-12-14T00:47:40.709Z,-0.96
2016-12-14T00:48:49.450Z,-0.82
2016-12-14T00:49:58.136Z,-0.94
2016-12-14T00:51:06.830Z,-0.77
2016-12-14T00:52:15.523Z,-0.72
2016-12-14T00:53:24.209Z,-0.72
2016-12-14T00:54:32.957Z,-0.77
2016-12-14T00:55:41.638Z,-0.91
2016-12-14T00:56:50.318Z,-0.87
2016-12-14T00:57:58.999Z,-0.82
2016-12-14T00:59:07.689Z,-0.8
2016-12-14T01:00:16.419Z,-0.94
2016-12-14T01:01:25.103Z,-0.82
2016-12-14T01:02:33.782Z,-0.77
2016-12-14T01:03:42.470Z,-0.69
2016-12-14T01:04:51.158Z,-0.69
2016-12-14T01:05:59.899Z,-0.67
2016-12-14T01:07:08.593Z,-0.69
2016-12-14T01:08:17.276Z,-0.63
2016-12-14T01:09:25.963Z,-0.7
2016-12-14T01:10:34.646Z,-0.74
2016-12-14T01:11:43.387Z,-0.74
2016-12-14T01:12:52.077Z,-0.74
2016-12-14T01:14:00.761Z,-0.77
2016-12-14T01:15:09.446Z,-0.62
2016-12-14T01:16:18.132Z,-0.63
2016-12-14T01:17:26.916Z,-0.77
2016-12-14T01:18:35.629Z,-0.59
2016-12-14T01:19:44.310Z,-0.54
2016-12-14T01:20:52.994Z,-0.54
2016-12-14T01:22:01.684Z,-0.48
2016-12-14T01:23:10.419Z,-0.46
2016-12-14T01:24:19.103Z,-0.42
2016-12-14T01:25:27.790Z,-0.49
2016-12-14T01:26:36.479Z,-0.42
2016-12-14T01:27:45.161Z,-0.48
2016-12-14T01:28:53.893Z,-0.39
2016-12-14T01:30:02.578Z,-0.51
2016-12-14T01:31:11.265Z,-0.36
2016-12-14T01:32:19.979Z,-0.35
2016-12-14T01:33:28.667Z,-0.42
2016-12-14T01:34:37.405Z,-0.26
2016-12-14T01:35:46.086Z,-0.2
2016-12-14T01:36:54.770Z,-0.2
2016-12-14T01:38:03.459Z,-0.07
2016-12-14T01:39:12.143Z,-0.06
2016-12-14T01:40:21.177Z,-0.07
2016-12-14T01:41:29.872Z,-0.05
2016-12-14T01:42:38.557Z,-0.07
2016-12-14T01:43:47.245Z,0
2016-12-14T01:44:55.932Z,0.06
2016-12-14T01:46:04.722Z,-0.02
2016-12-14T01:47:13.408Z,-0.18
2016-12-14T01:48:22.102Z,-0.1
2016-12-14T01:49:30.795Z,-0.17
2016-12-14T01:50:39.484Z,-0.2
2016-12-14T01:51:48.215Z,-0.09
2016-12-14T01:52:56.895Z,-0.05
2016-12-14T01:54:05.577Z,-0.13
2016-12-14T01:55:14.577Z,-0.05
2016-12-14T01:56:23.263Z,-0.03
2016-12-14T01:57:31.998Z,-0.13
2016-12-14T01:58:40.688Z,-0.31
2016-12-14T01:59:49.372Z,-0.46
2016-12-14T02:00:58.061Z,-0.69
2016-12-14T02:02:06.751Z,-0.82
2016-12-14T02:03:15.510Z,-0.97
2016-12-14T02:04:24.195Z,-1.14
2016-12-14T02:05:32.882Z,-1.14
2016-12-14T02:06:41.565Z,-1.15
2016-12-14T02:07:50.259Z,-1.17
2016-12-14T02:08:58.997Z,-1.18
2016-12-14T02:10:07.684Z,-1.19
2016-12-14T02:11:16.367Z,-1.21
2016-12-14T02:12:25.051Z,-1.18
2016-12-14T02:13:33.735Z,-1.14
2016-12-14T02:14:42.471Z,-1.03
2016-12-14T02:15:51.185Z,-1.03
2016-12-14T02:16:59.872Z,-1.04
2016-12-14T02:18:08.555Z,-1.18
2016-12-14T02:19:17.243Z,-1.14
2016-12-14T02:20:25.974Z,-1.17
2016-12-14T02:21:34.662Z,-1.22
2016-12-14T02:22:43.347Z,-1.29
2016-12-14T02:23:52.027Z,-1.29
2016-12-14T02:25:00.710Z,-1.27
2016-12-14T02:26:09.449Z,-1.22
2016-12-14T02:27:18.133Z,-1.21
2016-12-14T02:28:26.812Z,-1.19
2016-12-14T02:29:35.496Z,-1.3
2016-12-14T02:30:44.190Z,-1.3
2016-12-14T02:31:52.922Z,-1.24
2016-12-14T02:33:01.610Z,-1.32
2016-12-14T02:34:10.292Z,-1.29
2016-12-14T02:35:18.977Z,-1.32
2016-12-14T02:36:27.662Z,-1.29
2016-12-14T02:37:36.423Z,-1.3
2016-12-14T02:38:45.110Z,-1.18
2016-12-14T02:39:53.821Z,-1.18
2016-12-14T02:41:02.512Z,-1.21
2016-12-14T02:42:11.195Z,-1.24
2016-12-14T02:43:19.925Z,-1.35
2016-12-14T02:44:28.609Z,-1.35
2016-12-14T02:45:37.332Z,-1.42
2016-12-14T02:46:46.014Z,-1.48
2016-12-14T02:47:54.695Z,-1.57
2016-12-14T02:49:03.427Z,-1.58
2016-12-14T02:50:12.120Z,-1.57
2016-12-14T02:51:20.801Z,-1.5
2016-12-14T02:52:29.480Z,-1.51
2016-12-14T02:53:38.165Z,-1.46
2016-12-14T02:54:46.899Z,-1.45
2016-12-14T02:55:55.584Z,-1.57
2016-12-14T02:57:04.272Z,-1.39
2016-12-14T02:58:12.958Z,-1.36
2016-12-14T02:59:21.645Z,-1.43
2016-12-14T03:00:30.384Z,-1.36
2016-12-14T03:01:39.385Z,-1.38
2016-12-14T03:02:48.069Z,-1.39
2016-12-14T03:03:56.758Z,-1.3
2016-12-14T03:05:05.446Z,-1.42
2016-12-14T03:06:14.182Z,-1.39
2016-12-14T03:07:22.865Z,-1.36
2016-12-14T03:08:31.555Z,-1.48
2016-12-14T03:09:40.277Z,-1.64
2016-12-14T03:10:48.959Z,-1.69
2016-12-14T03:11:57.697Z,-1.86
2016-12-14T03:13:06.389Z,-2.07
2016-12-14T03:14:15.077Z,-2.22
2016-12-14T03:15:23.760Z,-2.26
2016-12-14T03:16:32.443Z,-2.34
2016-12-14T03:17:41.183Z,-2.5
2016-12-14T03:18:49.871Z,-2.58
2016-12-14T03:19:58.559Z,-2.66
2016-12-14T03:21:07.246Z,-2.58
2016-12-14T03:22:15.929Z,-2.51
2016-12-14T03:23:24.659Z,-2.4
2016-12-14T03:24:33.355Z,-2.42
2016-12-14T03:25:42.043Z,-2.51
2016-12-14T03:26:50.733Z,-2.51
2016-12-14T03:27:59.416Z,-2.55
2016-12-14T03:29:08.152Z,-2.54
2016-12-14T03:30:16.836Z,-2.51
2016-12-14T03:31:25.519Z,-2.52
2016-12-14T03:32:34.204Z,-2.51
2016-12-14T03:33:42.886Z,-2.29
2016-12-14T03:34:51.718Z,-2.04
2016-12-14T03:36:00.406Z,-1.58
2016-12-14T03:37:09.091Z,-1.32
2016-12-14T03:38:17.776Z,-1.09
2016-12-14T03:39:26.462Z,-0.93
2016-12-14T03:40:35.200Z,-0.62
2016-12-14T03:41:43.881Z,-0.54
2016-12-14T03:42:52.566Z,-0.45
2016-12-14T03:44:01.259Z,-0.33
2016-12-14T03:45:09.945Z,-0.31
2016-12-14T03:46:18.638Z,-0.21
2016-12-14T03:47:27.325Z,-0.35
2016-12-14T03:48:36.009Z,-0.3
2016-12-14T03:49:44.689Z,-0.3
2016-12-14T03:50:53.373Z,-0.38
2016-12-14T03:52:02.378Z,-0.39
2016-12-14T03:53:11.063Z,-0.54
2016-12-14T03:54:19.748Z,-0.69
2016-12-14T03:55:28.441Z,-0.94
2016-12-14T03:56:37.151Z,-1
2016-12-14T03:57:45.839Z,-1.18
2016-12-14T03:58:54.554Z,-1.36
2016-12-14T04:00:03.273Z,-1.48
2016-12-14T04:01:11.956Z,-1.64
2016-12-14T04:02:20.642Z,-1.93
2016-12-14T04:03:29.323Z,-1.94
2016-12-14T04:04:38.020Z,-2.05
2016-12-14T04:05:46.702Z,-2.04
2016-12-14T04:06:55.396Z,-2.18
2016-12-14T04:08:04.081Z,-2.33
2016-12-14T04:09:12.765Z,-2.34
2016-12-14T04:10:21.449Z,-2.42
2016-12-14T04:11:30.162Z,-2.5
2016-12-14T04:12:38.851Z,-2.58
2016-12-14T04:13:47.527Z,-2.58
2016-12-14T04:14:56.210Z,-2.58
2016-12-14T04:16:04.904Z,-2.61
2016-12-14T04:17:13.593Z,-2.55
2016-12-14T04:18:22.277Z,-2.55
2016-12-14T04:19:30.960Z,-2.63
2016-12-14T04:20:39.645Z,-2.68
2016-12-14T04:21:48.333Z,-2.58
2016-12-14T04:22:57.021Z,-2.63
2016-12-14T04:24:05.706Z,-2.73
2016-12-14T04:25:14.388Z,-2.75
2016-12-14T04:26:23.073Z,-2.83
2016-12-14T04:27:31.757Z,-2.73
2016-12-14T04:28:40.440Z,-2.84
2016-12-14T04:29:49.120Z,-3.04
2016-12-14T04:30:57.800Z,-3.05
2016-12-14T04:32:06.485Z,-3.09
2016-12-14T04:33:15.167Z,-3.25
2016-12-14T04:34:23.859Z,-3.26
2016-12-14T04:35:32.548Z,-3.36
2016-12-14T04:36:41.231Z,-3.41
2016-12-14T04:37:49.912Z,-3.47
2016-12-14T04:38:58.603Z,-3.37
2016-12-14T04:40:07.293Z,-3.37
2016-12-14T04:41:15.977Z,-3.26
2016-12-14T04:42:24.664Z,-3.11
2016-12-14T04:43:33.404Z,-2.94
2016-12-14T04:44:42.088Z,-2.44
2016-12-14T04:45:50.769Z,-2.22
2016-12-14T04:46:59.454Z,-1.93
2016-12-14T04:48:08.138Z,-1.56
2016-12-14T04:49:17.140Z,-1.46
2016-12-14T04:50:25.829Z,-1.29
2016-12-14T04:51:34.553Z,-1.25
2016-12-14T04:52:43.233Z,-1.33
2016-12-14T04:53:51.913Z,-1.32
2016-12-14T04:55:00.602Z,-1.32
2016-12-14T04:56:09.289Z,-1.33
2016-12-14T04:57:17.975Z,-1.24
2016-12-14T04:58:26.659Z,-1.36
2016-12-14T04:59:35.339Z,-1.45
2016-12-14T05:00:44.020Z,-1.45
2016-12-14T05:01:52.706Z,-1.42
2016-12-14T05:03:01.388Z,-1.46
2016-12-14T05:04:10.075Z,-1.57
2016-12-14T05:05:18.761Z,-1.66
2016-12-14T05:06:27.450Z,-1.81
2016-12-14T05:07:36.161Z,-1.94
2016-12-14T05:08:44.842Z,-1.92
2016-12-14T05:09:53.525Z,-2.14
2016-12-14T05:11:02.210Z,-2.26
2016-12-14T05:12:10.891Z,-2.33
2016-12-14T05:13:19.578Z,-2.29
2016-12-14T05:14:28.287Z,-2.45
2016-12-14T05:15:36.971Z,-2.36
2016-12-14T05:16:45.661Z,-2.48
2016-12-14T05:17:54.345Z,-2.42
2016-12-14T05:19:03.026Z,-2.45
2016-12-14T05:20:11.707Z,-2.47
2016-12-14T05:21:20.389Z,-2.4
2016-12-14T05:22:29.387Z,-2.37
2016-12-14T05:23:38.073Z,-2.5
2016-12-14T05:24:46.754Z,-2.52
2016-12-14T05:25:55.439Z,-2.61
2016-12-14T05:27:04.126Z,-2.61
2016-12-14T05:28:12.807Z,-2.61
2016-12-14T05:29:21.492Z,-2.68
2016-12-14T05:30:30.179Z,-2.78
2016-12-14T05:31:38.859Z,-2.9
2016-12-14T05:32:47.549Z,-2.89
2016-12-14T05:33:56.234Z,-2.89
2016-12-14T05:35:05.229Z,-2.86
2016-12-14T05:36:13.939Z,-2.89
2016-12-14T05:37:22.653Z,-2.91
2016-12-14T05:38:31.333Z,-2.87
2016-12-14T05:39:40.017Z,-2.84
2016-12-14T05:40:48.694Z,-2.91
2016-12-14T05:41:57.381Z,-2.83
2016-12-14T05:43:06.066Z,-2.81
2016-12-14T05:44:14.751Z,-2.76
2016-12-14T05:45:23.435Z,-2.78
2016-12-14T05:46:32.119Z,-2.81
2016-12-14T05:47:40.805Z,-2.89
2016-12-14T05:48:49.518Z,-2.89
2016-12-14T05:49:58.208Z,-2.9
2016-12-14T05:51:06.898Z,-2.91
2016-12-14T05:52:15.582Z,-2.94
2016-12-14T05:53:24.264Z,-2.84
2016-12-14T05:54:32.947Z,-2.87
2016-12-14T05:55:41.634Z,-2.84
2016-12-14T05:56:50.318Z,-2.86
2016-12-14T05:57:58.999Z,-2.9
2016-12-14T05:59:07.684Z,-2.93
2016-12-14T06:00:16.369Z,-2.9
2016-12-14T06:01:25.057Z,-2.87
2016-12-14T06:02:34.063Z,-2.81
2016-12-14T06:03:42.745Z,-2.7
2016-12-14T06:04:51.430Z,-2.72
2016-12-14T06:06:00.114Z,-2.63
2016-12-14T06:07:08.800Z,-2.65
2016-12-14T06:08:17.492Z,-2.66
2016-12-14T06:09:26.178Z,-2.61
2016-12-14T06:10:35.182Z,-2.65
2016-12-14T06:11:43.866Z,-2.63
2016-12-14T06:12:52.558Z,-2.68
2016-12-14T06:14:01.245Z,-2.69
2016-12-14T06:15:10.237Z,-2.76
2016-12-14T06:16:18.921Z,-2.69
2016-12-14T06:17:27.606Z,-2.76
2016-12-14T06:18:36.296Z,-2.7
2016-12-14T06:19:45.306Z,-2.78
2016-12-14T06:20:53.987Z,-2.8
2016-12-14T06:22:02.985Z,-2.7
2016-12-14T06:23:11.674Z,-2.76
2016-12-14T06:24:20.360Z,-2.73
2016-12-14T06:25:29.044Z,-2.73
2016-12-14T06:26:37.729Z,-2.93
2016-12-14T06:27:46.411Z,-2.87
2016-12-14T06:28:55.091Z,-2.89
2016-12-14T06:30:03.777Z,-2.94
2016-12-14T06:31:12.498Z,-2.99
2016-12-14T06:32:21.180Z,-3.02
2016-12-14T06:33:29.859Z,-3.09
2016-12-14T06:34:38.539Z,-3.14
2016-12-14T06:35:47.222Z,-3.05
2016-12-14T06:36:55.910Z,-3.15
2016-12-14T06:38:04.591Z,-3.27
2016-12-14T06:39:13.277Z,-3.29
2016-12-14T06:40:22.284Z,-3.22
2016-12-14T06:41:30.988Z,-3.36
2016-12-14T06:42:39.679Z,-3.4
2016-12-14T06:43:48.460Z,-3.4
2016-12-14T06:44:57.143Z,-3.37
2016-12-14T06:46:06.143Z,-3.38
2016-12-14T06:47:14.827Z,-3.38
2016-12-14T06:48:23.519Z,-3.48
2016-12-14T06:49:32.200Z,-3.56
2016-12-14T06:50:40.881Z,-3.56
2016-12-14T06:51:49.564Z,-3.59
2016-12-14T06:52:58.257Z,-3.62
2016-12-14T06:54:06.943Z,-3.55
2016-12-14T06:55:15.636Z,-3.55
2016-12-14T06:56:24.337Z,-3.51
2016-12-14T06:57:33.019Z,-3.51
2016-12-14T06:58:41.708Z,-3.43
2016-12-14T06:59:50.395Z,-3.51
2016-12-14T07:00:59.081Z,-3.56
2016-12-14T07:02:07.771Z,-3.55
2016-12-14T07:03:16.454Z,-3.61
2016-12-14T07:04:25.153Z,-3.64
2016-12-14T07:05:33.871Z,-3.71
2016-12-14T07:06:42.551Z,-3.68
2016-12-14T07:07:51.233Z,-3.74
2016-12-14T07:08:59.915Z,-3.77
2016-12-14T07:10:08.605Z,-3.81
2016-12-14T07:11:17.287Z,-3.87
2016-12-14T07:12:25.981Z,-3.83
2016-12-14T07:13:34.660Z,-3.9
2016-12-14T07:14:43.349Z,-3.9
2016-12-14T07:15:52.030Z,-3.83
2016-12-14T07:17:00.716Z,-3.91
2016-12-14T07:18:09.409Z,-3.83
2016-12-14T07:19:18.092Z,-3.91
2016-12-14T07:20:26.776Z,-3.94
2016-12-14T07:21:35.460Z,-3.88
2016-12-14T07:22:44.147Z,-3.81
2016-12-14T07:23:52.826Z,-3.83
2016-12-14T07:25:01.507Z,-3.84
2016-12-14T07:26:10.193Z,-3.88
2016-12-14T07:27:18.879Z,-3.9
2016-12-14T07:28:27.592Z,-3.88
2016-12-14T07:29:36.275Z,-3.95
2016-12-14T07:30:44.959Z,-3.99
2016-12-14T07:31:53.658Z,-3.95
2016-12-14T07:33:02.349Z,-4.05
2016-12-14T07:34:11.038Z,-4.02
2016-12-14T07:35:19.719Z,-4.14
2016-12-14T07:36:28.733Z,-4.17
2016-12-14T07:37:37.418Z,-4.14
2016-12-14T07:38:46.101Z,-4.13
2016-12-14T07:39:54.781Z,-4.23
2016-12-14T07:41:03.494Z,-4.2
2016-12-14T07:42:12.178Z,-4.23
2016-12-14T07:43:20.864Z,-4.14
2016-12-14T07:44:29.556Z,-4.16
2016-12-14T07:45:38.240Z,-4.17
2016-12-14T07:46:46.919Z,-4.17
2016-12-14T07:47:55.603Z,-4.12
2016-12-14T07:49:04.289Z,-4.17
2016-12-14T07:50:12.993Z,-4.22
2016-12-14T07:51:21.682Z,-4.22
2016-12-14T07:52:30.370Z,-4.17
2016-12-14T07:53:39.054Z,-4.14
2016-12-14T07:54:47.740Z,-4.08
2016-12-14T07:55:56.428Z,-4.05
2016-12-14T07:57:05.111Z,-4.01
2016-12-14T07:58:13.820Z,-3.9
2016-12-14T07:59:22.501Z,-3.98
2016-12-14T08:00:31.193Z,-3.87
2016-12-14T08:01:39.877Z,-3.75
2016-12-14T08:02:48.570Z,-3.74
2016-12-14T08:03:57.295Z,-3.68
2016-12-14T08:05:05.982Z,-3.71
2016-12-14T08:06:14.662Z,-3.71
2016-12-14T08:07:23.347Z,-3.71
2016-12-14T08:08:32.055Z,-3.66
2016-12-14T08:09:40.741Z,-3.69
2016-12-14T08:10:49.429Z,-3.58
2016-12-14T08:11:58.114Z,-3.55
2016-12-14T08:13:06.798Z,-3.55
2016-12-14T08:14:15.475Z,-3.58
2016-12-14T08:15:24.160Z,-3.65
2016-12-14T08:16:32.842Z,-3.5
2016-12-14T08:17:41.532Z,-3.48
2016-12-14T08:18:50.215Z,-3.53
2016-12-14T08:19:58.893Z,-3.51
2016-12-14T08:21:07.580Z,-3.48
2016-12-14T08:22:16.262Z,-3.48
2016-12-14T08:23:24.948Z,-3.48
2016-12-14T08:24:33.635Z,-3.46
2016-12-14T08:25:42.323Z,-3.43
2016-12-14T08:26:51.013Z,-3.61
2016-12-14T08:27:59.697Z,-3.68
2016-12-14T08:29:08.383Z,-3.68
2016-12-14T08:30:17.068Z,-3.68
2016-12-14T08:31:26.063Z,-3.59
2016-12-14T08:32:34.749Z,-3.64
2016-12-14T08:33:43.440Z,-3.64
2016-12-14T08:34:52.150Z,-3.59
2016-12-14T08:36:00.839Z,-3.64
2016-12-14T08:37:09.523Z,-3.62
2016-12-14T08:38:18.209Z,-3.68
2016-12-14T08:39:26.902Z,-3.68
2016-12-14T08:40:35.580Z,-3.64
2016-12-14T08:41:44.264Z,-3.59
2016-12-14T08:42:52.956Z,-3.55
2016-12-14T08:44:01.641Z,-3.46
2016-12-14T08:45:10.329Z,-3.43
2016-12-14T08:46:19.014Z,-3.43
2016-12-14T08:47:27.697Z,-3.4
2016-12-14T08:48:36.379Z,-3.37
2016-12-14T08:49:45.104Z,-3.38
2016-12-14T08:50:53.792Z,-3.56
2016-12-14T08:52:02.477Z,-3.64
2016-12-14T08:53:11.160Z,-3.62
2016-12-14T08:54:20.159Z,-3.61
2016-12-14T08:55:28.871Z,-3.62
2016-12-14T08:56:37.559Z,-3.55
2016-12-14T08:57:46.273Z,-3.53
2016-12-14T08:58:54.956Z,-3.48
2016-12-14T09:00:03.644Z,-3.48
2016-12-14T09:01:12.335Z,-3.5
2016-12-14T09:02:21.016Z,-3.43
2016-12-14T09:03:29.723Z,-3.37
2016-12-14T09:04:38.420Z,-3.33
2016-12-14T09:05:47.100Z,-3.43
2016-12-14T09:06:55.784Z,-3.43
2016-12-14T09:08:04.468Z,-3.37
2016-12-14T09:09:13.150Z,-3.41
2016-12-14T09:10:21.833Z,-3.4
2016-12-14T09:11:30.842Z,-3.44
2016-12-14T09:12:39.559Z,-3.38
2016-12-14T09:13:48.241Z,-3.4
2016-12-14T09:14:56.950Z,-3.43
2016-12-14T09:16:05.635Z,-3.48
2016-12-14T09:17:14.325Z,-3.47
2016-12-14T09:18:23.011Z,-3.55
2016-12-14T09:19:31.692Z,-3.58
2016-12-14T09:20:40.374Z,-3.61
2016-12-14T09:21:49.374Z,-3.77
2016-12-14T09:22:58.064Z,-3.8
2016-12-14T09:24:06.769Z,-3.77
2016-12-14T09:25:15.485Z,-3.87
2016-12-14T09:26:24.163Z,-3.91
2016-12-14T09:27:32.875Z,-3.9
2016-12-14T09:28:41.563Z,-4.02
2016-12-14T09:29:50.247Z,-4.04
2016-12-14T09:30:58.934Z,-4.12
2016-12-14T09:32:07.619Z,-4.2
2016-12-14T09:33:16.337Z,-4.16
2016-12-14T09:34:25.023Z,-4.19
2016-12-14T09:35:33.701Z,-4.19
2016-12-14T09:36:42.388Z,-4.16
2016-12-14T09:37:51.069Z,-4.16
2016-12-14T09:38:59.751Z,-4.19
2016-12-14T09:40:08.436Z,-4.04
2016-12-14T09:41:17.121Z,-4.02
2016-12-14T09:42:25.832Z,-3.99
2016-12-14T09:43:34.519Z,-3.99
2016-12-14T09:44:43.206Z,-3.94
2016-12-14T09:45:51.922Z,-3.85
2016-12-14T09:47:00.705Z,-3.84
2016-12-14T09:48:09.394Z,-3.81
2016-12-14T09:49:18.077Z,-3.81
2016-12-14T09:50:26.769Z,-3.91
2016-12-14T09:51:35.458Z,-3.85
2016-12-14T09:52:44.199Z,-3.88
2016-12-14T09:53:52.882Z,-3.84
2016-12-14T09:55:01.564Z,-3.94
2016-12-14T09:56:10.247Z,-3.95
2016-12-14T09:57:18.931Z,-3.88
2016-12-14T09:58:27.613Z,-3.95
2016-12-14T09:59:36.311Z,-3.95
2016-12-14T10:00:44.989Z,-3.95
2016-12-14T10:01:53.677Z,-3.87
2016-12-14T10:03:02.376Z,-3.9
2016-12-14T10:04:11.061Z,-3.81
2016-12-14T10:05:19.743Z,-3.83
2016-12-14T10:06:28.431Z,-3.77
2016-12-14T10:07:37.116Z,-3.69
2016-12-14T10:08:45.832Z,-3.56
2016-12-14T10:09:54.547Z,-3.62
2016-12-14T10:11:03.248Z,-3.68
2016-12-14T10:12:11.936Z,-3.64
2016-12-14T10:13:20.641Z,-3.68
2016-12-14T10:14:29.444Z,-3.69
2016-12-14T10:15:38.129Z,-3.68
2016-12-14T10:16:46.816Z,-3.75
2016-12-14T10:17:55.505Z,-3.68
2016-12-14T10:19:04.191Z,-3.68
2016-12-14T10:20:12.877Z,-3.68
2016-12-14T10:21:21.560Z,-3.69
2016-12-14T10:22:30.240Z,-3.66
2016-12-14T10:23:38.923Z,-3.68
2016-12-14T10:24:47.618Z,-3.66
2016-12-14T10:25:56.615Z,-3.71
2016-12-14T10:27:05.308Z,-3.69
2016-12-14T10:28:13.995Z,-3.66
2016-12-14T10:29:22.678Z,-3.74
2016-12-14T10:30:31.394Z,-3.71
2016-12-14T10:31:40.082Z,-3.48
2016-12-14T10:32:48.766Z,-3.38
2016-12-14T10:33:57.451Z,-3.27
2016-12-14T10:35:06.136Z,-3.26
2016-12-14T10:36:14.827Z,-3.19
2016-12-14T10:37:23.513Z,-3.09
2016-12-14T10:38:32.198Z,-3.07
2016-12-14T10:39:40.887Z,-3.05
2016-12-14T10:40:49.884Z,-3.05
2016-12-14T10:41:58.577Z,-2.99
2016-12-14T10:43:07.587Z,-2.84
2016-12-14T10:44:16.277Z,-2.76
2016-12-14T10:45:24.969Z,-2.72
2016-12-14T10:46:33.655Z,-2.65
2016-12-14T10:47:42.368Z,-2.69
2016-12-14T10:48:51.049Z,-2.52
2016-12-14T10:49:59.746Z,-2.52
2016-12-14T10:51:08.426Z,-2.52
2016-12-14T10:52:17.112Z,-2.48
2016-12-14T10:53:25.793Z,-2.42
2016-12-14T10:54:34.477Z,-2.33
2016-12-14T10:55:43.166Z,-2.17
2016-12-14T10:56:51.856Z,-2.18
2016-12-14T10:58:00.544Z,-2.18
2016-12-14T10:59:09.232Z,-2.17
2016-12-14T11:00:17.923Z,-2.11
2016-12-14T11:01:26.607Z,-1.96
2016-12-14T11:02:35.297Z,-1.93
2016-12-14T11:03:43.983Z,-1.92
2016-12-14T11:04:52.671Z,-1.75
2016-12-14T11:06:01.370Z,-1.72
2016-12-14T11:07:10.056Z,-1.82
2016-12-14T11:08:18.742Z,-1.72
2016-12-14T11:09:27.432Z,-1.66
2016-12-14T11:10:36.122Z,-1.56
2016-12-14T11:11:44.811Z,-1.45
2016-12-14T11:12:53.505Z,-1.22
2016-12-14T11:14:02.187Z,-0.85
2016-12-14T11:15:10.910Z,-0.57
2016-12-14T11:16:19.600Z,-0.31
2016-12-14T11:17:28.286Z,-0.05
2016-12-14T11:18:37.371Z,0.16
2016-12-14T11:19:46.079Z,0.44
2016-12-14T11:20:54.775Z,0.59
2016-12-14T11:22:03.463Z,0.85
2016-12-14T11:23:12.148Z,0.88
2016-12-14T11:24:20.840Z,0.86
2016-12-14T11:25:29.539Z,1.02
2016-12-14T11:26:38.227Z,1.07
2016-12-14T11:27:46.914Z,1.2
2016-12-14T11:28:55.608Z,1.25
2016-12-14T11:30:04.303Z,1.3
2016-12-14T11:31:12.995Z,1.48
2016-12-14T11:32:21.681Z,1.61
2016-12-14T11:33:30.374Z,1.76
2016-12-14T11:34:39.061Z,1.79
2016-12-14T11:35:47.749Z,1.98
2016-12-14T11:36:56.441Z,2.1
2016-12-14T11:38:05.130Z,2.28
2016-12-14T11:39:13.817Z,2.34
2016-12-14T11:40:22.510Z,2.59
2016-12-14T11:41:31.203Z,2.68
2016-12-14T11:42:39.891Z,2.72
2016-12-14T11:43:48.590Z,2.88
2016-12-14T11:44:57.284Z,3
2016-12-14T11:46:05.976Z,3.05
2016-12-14T11:47:14.669Z,3.16
2016-12-14T11:48:23.357Z,3.31
2016-12-14T11:49:32.053Z,3.43
2016-12-14T11:50:40.745Z,3.49
2016-12-14T11:51:49.445Z,3.59
2016-12-14T11:52:58.145Z,3.73
2016-12-14T11:54:06.840Z,3.78
2016-12-14T11:55:15.532Z,3.94
2016-12-14T11:56:24.235Z,4.04
2016-12-14T11:57:33.237Z,4.03
2016-12-14T11:58:41.927Z,4.04
2016-12-14T11:59:50.625Z,4.12
2016-12-14T12:00:59.323Z,4.21
2016-12-14T12:02:08.017Z,4.13
2016-12-14T12:03:16.715Z,4.13
2016-12-14T12:04:25.430Z,4.13
2016-12-14T12:05:34.121Z,4.31
2016-12-14T12:06:42.817Z,4.38
2016-12-14T12:07:51.514Z,4.5
2016-12-14T12:09:00.207Z,4.49
2016-12-14T12:10:08.894Z,4.64
2016-12-14T12:11:17.582Z,4.64
2016-12-14T12:12:26.278Z,4.75
2016-12-14T12:13:34.970Z,4.67
2016-12-14T12:14:43.668Z,4.78
2016-12-14T12:15:52.751Z,4.89
2016-12-14T12:17:01.443Z,5.05
2016-12-14T12:18:10.134Z,5.04
2016-12-14T12:19:18.825Z,5.16
2016-12-14T12:20:27.519Z,5.25
2016-12-14T12:21:36.554Z,5.29
2016-12-14T12:22:45.249Z,5.23
2016-12-14T12:23:53.948Z,5.33
2016-12-14T12:25:02.644Z,5.23
2016-12-14T12:26:11.340Z,5.08
2016-12-14T12:27:20.049Z,4.94
2016-12-14T12:28:28.749Z,4.92
2016-12-14T12:29:37.448Z,4.71
2016-12-14T12:30:46.156Z,4.52
2016-12-14T12:31:54.853Z,4.34
2016-12-14T12:33:03.548Z,4.1
2016-12-14T12:34:12.244Z,4.04
2016-12-14T12:35:20.966Z,4.1
2016-12-14T12:36:29.667Z,4.04
2016-12-14T12:37:38.357Z,4.04
2016-12-14T12:38:47.047Z,4
2016-12-14T12:39:55.742Z,3.74
2016-12-14T12:41:04.448Z,3.58
2016-12-14T12:42:13.139Z,3.29
2016-12-14T12:43:21.835Z,3.06
2016-12-14T12:44:30.531Z,3.13
2016-12-14T12:45:39.231Z,3.01
2016-12-14T12:46:47.924Z,2.76
2016-12-14T12:47:56.620Z,2.43
2016-12-14T12:49:05.318Z,1.71
2016-12-14T12:50:14.008Z,1.21
2016-12-14T12:51:22.702Z,0.85
2016-12-14T12:52:31.398Z,0.58
2016-12-14T12:53:40.084Z,0.49
2016-12-14T12:54:48.786Z,0.2
2016-12-14T12:55:57.474Z,0.11
2016-12-14T12:57:06.163Z,-0.09
2016-12-14T12:58:14.854Z,-0.12
2016-12-14T12:59:23.545Z,-0.23
2016-12-14T13:00:32.231Z,-0.44
2016-12-14T13:01:40.932Z,-0.51
2016-12-14T13:02:49.947Z,-0.72
2016-12-14T13:03:58.949Z,-0.78
2016-12-14T13:05:07.638Z,-0.87
2016-12-14T13:06:16.357Z,-0.87
2016-12-14T13:07:25.364Z,-0.81
2016-12-14T13:08:34.064Z,-0.99
2016-12-14T13:09:42.751Z,-1.06
2016-12-14T13:10:51.446Z,-1.17
2016-12-14T13:12:00.134Z,-1.24
2016-12-14T13:13:08.825Z,-1.3
2016-12-14T13:14:17.511Z,-1.39
2016-12-14T13:15:26.204Z,-1.42
2016-12-14T13:16:34.902Z,-1.5
2016-12-14T13:17:43.607Z,-1.63
2016-12-14T13:18:52.291Z,-1.63
2016-12-14T13:20:00.983Z,-1.79
2016-12-14T13:21:09.668Z,-1.76
2016-12-14T13:22:18.353Z,-1.94
2016-12-14T13:23:27.102Z,-2.02
2016-12-14T13:24:35.931Z,-2.13
2016-12-14T13:25:44.756Z,-2.23
2016-12-14T13:26:53.471Z,-2.34
2016-12-14T13:28:02.163Z,-2.36
2016-12-14T13:29:10.858Z,-2.33
2016-12-14T13:30:19.540Z,-2.37
2016-12-14T13:31:28.228Z,-2.47
2016-12-14T13:32:36.913Z,-2.4
2016-12-14T13:33:45.932Z,-2.51
2016-12-14T13:34:54.954Z,-2.57
2016-12-14T13:36:03.653Z,-2.5
2016-12-14T13:37:12.337Z,-2.51
2016-12-14T13:38:21.029Z,-2.54
2016-12-14T13:39:29.720Z,-2.63
2016-12-14T13:40:38.409Z,-2.69
2016-12-14T13:41:47.102Z,-2.72
2016-12-14T13:42:55.781Z,-2.72
2016-12-14T13:44:04.478Z,-2.89
2016-12-14T13:45:13.178Z,-2.89
2016-12-14T13:46:21.864Z,-2.91
2016-12-14T13:47:30.553Z,-2.98
2016-12-14T13:48:39.238Z,-3.01
2016-12-14T13:49:47.923Z,-3.01
2016-12-14T13:50:56.922Z,-3.09
2016-12-14T13:52:05.606Z,-3.17
2016-12-14T13:53:14.289Z,-3.07
2016-12-14T13:54:23.307Z,-3.22
2016-12-14T13:55:31.991Z,-3.25
2016-12-14T13:56:40.672Z,-3.4
2016-12-14T13:57:49.363Z,-3.38
2016-12-14T13:58:58.052Z,-3.41
2016-12-14T14:00:06.741Z,-3.5
2016-12-14T14:01:15.426Z,-3.55
2016-12-14T14:02:24.112Z,-3.74
2016-12-14T14:03:32.797Z,-3.65
2016-12-14T14:04:41.496Z,-3.64
2016-12-14T14:05:50.182Z,-3.71
2016-12-14T14:06:58.871Z,-3.68
2016-12-14T14:08:07.557Z,-3.68
2016-12-14T14:09:16.261Z,-3.74
2016-12-14T14:10:24.946Z,-3.81
2016-12-14T14:11:33.637Z,-3.91
2016-12-14T14:12:42.330Z,-3.95
2016-12-14T14:13:51.022Z,-3.87
2016-12-14T14:14:59.708Z,-3.95
2016-12-14T14:16:08.395Z,-4.05
2016-12-14T14:17:17.079Z,-4.14
2016-12-14T14:18:25.763Z,-4.2
2016-12-14T14:19:34.451Z,-4.16
2016-12-14T14:20:43.149Z,-4.23
2016-12-14T14:21:51.836Z,-4.26
2016-12-14T14:23:00.551Z,-4.37
2016-12-14T14:24:09.242Z,-4.38
2016-12-14T14:25:17.931Z,-4.41
2016-12-14T14:26:26.614Z,-4.52
2016-12-14T14:27:35.302Z,-4.53
2016-12-14T14:28:44.014Z,-4.58
2016-12-14T14:29:52.699Z,-4.67
2016-12-14T14:31:01.382Z,-4.67
2016-12-14T14:32:10.070Z,-4.73
2016-12-14T14:33:18.754Z,-4.76
2016-12-14T14:34:27.439Z,-4.84
2016-12-14T14:35:36.132Z,-4.92
2016-12-14T14:36:44.817Z,-4.97
2016-12-14T14:37:53.501Z,-4.95
2016-12-14T14:39:02.184Z,-4.92
2016-12-14T14:40:10.892Z,-5.05
2016-12-14T14:41:19.579Z,-4.95
2016-12-14T14:42:28.262Z,-5.09
2016-12-14T14:43:36.954Z,-5.25
2016-12-14T14:44:45.640Z,-5.08
2016-12-14T14:45:54.325Z,-5.09
2016-12-14T14:47:03.010Z,-5.1
2016-12-14T14:48:11.724Z,-5.09
2016-12-14T14:49:20.418Z,-5.01
2016-12-14T14:50:29.110Z,-4.92
2016-12-14T14:51:37.801Z,-4.98